createdAt,value
2018-09-25T00:03:20.392Z,6.97
2018-09-25T00:08:28.587Z,4.73
2018-09-25T00:13:36.959Z,3.53
2018-09-25T00:18:45.191Z,6.43
2018-09-25T00:23:53.399Z,6.13
2018-09-25T00:29:01.595Z,8.63
2018-09-25T00:34:09.770Z,3.93
2018-09-25T00:39:17.983Z,11.30
2018-09-25T00:44:26.172Z,6.37
2018-09-25T00:49:34.435Z,10.27
2018-09-25T00:54:42.722Z,6.57
2018-09-25T00:59:50.816Z,5.87
2018-09-25T01:04:59.018Z,7.33
2018-09-25T01:10:07.128Z,6.03
2018-09-25T01:15:15.585Z,5.70
2018-09-25T01:20:23.766Z,8.27
2018-09-25T01:25:31.996Z,4.23
2018-09-25T01:30:40.126Z,4.37
2018-09-25T01:35:48.321Z,4.80
2018-09-25T01:40:56.501Z,5.10
2018-09-25T01:46:04.698Z,6.20
2018-09-25T01:51:13.024Z,8.83
2018-09-25T01:56:21.246Z,5.27
2018-09-25T02:01:29.476Z,3.80
2018-09-25T02:06:37.733Z,5.33
2018-09-25T02:11:46.035Z,3.50
2018-09-25T02:16:54.248Z,3.07
2018-09-25T02:22:02.439Z,9.23
2018-09-25T02:27:10.629Z,4.63
2018-09-25T02:32:18.727Z,6.50
2018-09-25T02:37:26.888Z,5.60
2018-09-25T02:42:35.012Z,9.30
2018-09-25T02:47:43.221Z,7.40
2018-09-25T02:52:51.467Z,3.73
2018-09-25T02:57:59.523Z,5.40
2018-09-25T03:03:07.816Z,6.97
2018-09-25T03:08:16.011Z,5.87
2018-09-25T03:13:24.248Z,4.07
2018-09-25T03:18:32.404Z,6.47
2018-09-25T03:23:40.702Z,5.07
2018-09-25T03:28:48.861Z,4.33
2018-09-25T03:33:57.035Z,7.40
2018-09-25T03:39:05.224Z,5.93
2018-09-25T03:44:13.476Z,8.67
2018-09-25T03:49:21.604Z,6.67
2018-09-25T03:54:29.741Z,7.97
2018-09-25T03:59:37.885Z,9.90
2018-09-25T04:04:45.991Z,9.03
2018-09-25T04:09:54.194Z,8.20
2018-09-25T04:15:02.565Z,8.80
2018-09-25T04:20:10.778Z,7.67
2018-09-25T04:25:18.900Z,10.03
2018-09-25T04:30:27.127Z,10.53
2018-09-25T04:35:35.275Z,6.73
2018-09-25T04:40:43.421Z,7.70
2018-09-25T04:45:51.531Z,7.60
2018-09-25T04:50:59.643Z,9.77
2018-09-25T04:56:07.821Z,9.53
2018-09-25T05:01:15.987Z,7.23
2018-09-25T05:06:24.200Z,11.53
2018-09-25T05:11:32.495Z,5.03
2018-09-25T05:16:40.600Z,10.17
2018-09-25T05:21:49.011Z,11.30
2018-09-25T05:26:57.114Z,7.00
2018-09-25T05:32:05.294Z,8.77
2018-09-25T05:37:13.547Z,9.70
2018-09-25T05:42:21.683Z,13.90
2018-09-25T05:47:29.932Z,8.90
2018-09-25T05:52:38.234Z,7.97
2018-09-25T05:57:46.515Z,9.87
2018-09-25T06:02:54.793Z,7.63
2018-09-25T06:08:03.037Z,7.87
2018-09-25T06:13:11.228Z,11.97
2018-09-25T06:18:19.360Z,7.70
2018-09-25T06:23:27.593Z,8.63
2018-09-25T06:28:35.904Z,7.43
2018-09-25T06:33:44.152Z,11.03
2018-09-25T06:38:52.504Z,8.93
2018-09-25T06:44:00.706Z,8.87
2018-09-25T06:49:08.893Z,9.63
2018-09-25T06:54:17.023Z,8.63
2018-09-25T06:59:25.163Z,7.93
2018-09-25T07:04:33.401Z,11.83
2018-09-25T07:09:41.715Z,7.03
2018-09-25T07:14:49.880Z,7.10
2018-09-25T07:19:58.062Z,14.63
2018-09-25T07:25:06.234Z,17.03
2018-09-25T07:30:14.352Z,15.87
2018-09-25T07:35:22.658Z,13.03
2018-09-25T07:40:30.889Z,10.30
2018-09-25T07:45:39.196Z,6.97
2018-09-25T07:50:47.297Z,12.67
2018-09-25T07:55:55.546Z,6.20
2018-09-25T08:01:03.656Z,3.73
2018-09-25T08:06:11.799Z,4.63
2018-09-25T08:11:20.024Z,4.03
2018-09-25T08:16:28.302Z,6.17
2018-09-25T08:21:36.528Z,4.30
2018-09-25T08:26:44.760Z,2.13
2018-09-25T08:31:52.969Z,2.47
2018-09-25T08:37:01.068Z,4.77
2018-09-25T08:42:09.218Z,3.13
2018-09-25T08:47:17.291Z,4.60
2018-09-25T08:52:25.476Z,2.47
2018-09-25T08:57:33.668Z,3.10
2018-09-25T09:02:41.791Z,2.37
2018-09-25T09:07:50.053Z,3.77
2018-09-25T09:12:58.307Z,2.73
2018-09-25T09:18:06.558Z,3.30
2018-09-25T09:23:14.744Z,6.70
2018-09-25T09:28:22.902Z,3.53
2018-09-25T09:33:31.055Z,3.17
2018-09-25T09:38:39.231Z,3.13
2018-09-25T09:43:47.384Z,3.37
2018-09-25T09:48:55.596Z,3.53
2018-09-25T09:54:03.778Z,3.60
2018-09-25T09:59:11.940Z,3.73
2018-09-25T10:04:20.109Z,5.13
2018-09-25T10:09:28.339Z,3.13
2018-09-25T10:14:36.501Z,5.03
2018-09-25T10:19:44.795Z,8.13
2018-09-25T10:24:53.001Z,5.20
2018-09-25T10:30:01.283Z,3.57
2018-09-25T10:35:09.408Z,3.83
2018-09-25T10:40:17.526Z,4.47
2018-09-25T10:45:25.680Z,2.17
2018-09-25T10:50:33.951Z,3.27
2018-09-25T10:55:42.101Z,3.03
2018-09-25T11:00:50.291Z,3.20
2018-09-25T11:05:58.539Z,4.03
2018-09-25T11:11:06.760Z,3.57
2018-09-25T11:16:14.875Z,2.93
2018-09-25T11:21:23.194Z,3.87
2018-09-25T11:26:31.340Z,4.13
2018-09-25T11:31:39.562Z,4.60
2018-09-25T11:36:47.908Z,2.97
2018-09-25T11:41:56.117Z,3.07
2018-09-25T11:47:04.393Z,3.50
2018-09-25T11:52:12.547Z,4.13
2018-09-25T11:57:20.713Z,3.63
2018-09-25T12:02:28.893Z,4.23
2018-09-25T12:07:37.010Z,3.10
2018-09-25T12:12:45.275Z,2.57
2018-09-25T12:17:53.466Z,3.97
2018-09-25T12:23:01.743Z,2.23
2018-09-25T12:28:10.024Z,4.70
2018-09-25T12:33:18.304Z,3.60
2018-09-25T12:38:26.566Z,3.77
2018-09-25T12:43:34.836Z,3.80
2018-09-25T12:48:42.943Z,2.80
2018-09-25T12:53:51.167Z,3.80
2018-09-25T12:58:59.297Z,3.83
2018-09-25T13:04:07.407Z,2.43
2018-09-25T13:09:15.658Z,4.43
2018-09-25T13:14:23.759Z,6.03
2018-09-25T13:19:31.918Z,2.03
2018-09-25T13:24:40.153Z,5.53
2018-09-25T13:29:48.359Z,2.90
2018-09-25T13:34:56.572Z,3.07
2018-09-25T13:40:04.807Z,2.43
2018-09-25T13:45:12.919Z,2.62
2018-09-25T13:50:21.032Z,2.57
2018-09-25T13:55:29.217Z,2.23
2018-09-25T14:00:37.520Z,3.20
2018-09-25T14:05:47.153Z,3.37
2018-09-25T14:10:55.211Z,2.70
2018-09-25T14:16:03.413Z,1.83
2018-09-25T14:21:11.683Z,3.10
2018-09-25T14:26:19.872Z,3.07
2018-09-25T14:31:35.795Z,1.83
2018-09-25T14:36:44.114Z,1.10
2018-09-25T14:41:52.235Z,2.07
2018-09-25T14:47:00.339Z,1.43
2018-09-25T14:52:08.536Z,2.00
2018-09-25T14:57:16.683Z,2.67
2018-09-25T15:02:24.840Z,1.87
2018-09-25T15:07:33.721Z,2.40
2018-09-25T15:12:41.819Z,3.43
2018-09-25T15:17:50.024Z,2.57
2018-09-25T15:22:58.132Z,6.10
2018-09-25T15:28:08.004Z,4.27
2018-09-25T15:33:16.222Z,6.20
2018-09-25T15:38:24.512Z,3.87
2018-09-25T15:43:32.796Z,5.70
2018-09-25T15:48:41.037Z,3.60
2018-09-25T15:53:49.164Z,3.57
2018-09-25T15:58:57.388Z,3.10
2018-09-25T16:04:05.594Z,4.03
2018-09-25T16:09:14.332Z,4.30
2018-09-25T16:14:23.215Z,3.40
2018-09-25T16:19:31.502Z,1.40
2018-09-25T16:24:39.695Z,5.10
2018-09-25T16:29:47.880Z,2.50
2018-09-25T16:34:56.009Z,4.30
2018-09-25T16:40:04.295Z,3.37
2018-09-25T16:45:12.551Z,2.60
2018-09-25T16:50:20.649Z,3.73
2018-09-25T16:55:28.919Z,2.63
2018-09-25T17:00:37.253Z,5.00
2018-09-25T17:05:45.662Z,1.40
2018-09-25T17:10:53.808Z,2.50
2018-09-25T17:16:01.928Z,6.67
2018-09-25T17:21:10.127Z,5.53
2018-09-25T17:26:18.291Z,3.30
2018-09-25T17:31:26.512Z,2.00
2018-09-25T17:36:34.716Z,3.70
2018-09-25T17:41:42.972Z,3.23
2018-09-25T17:46:51.164Z,7.70
2018-09-25T17:51:59.341Z,4.30
2018-09-25T17:57:07.472Z,5.20
2018-09-25T18:02:15.668Z,5.43
2018-09-25T18:07:23.979Z,6.03
2018-09-25T18:12:32.289Z,5.30
2018-09-25T18:17:40.631Z,7.60
2018-09-25T18:22:48.846Z,8.30
2018-09-25T18:27:57.143Z,7.10
2018-09-25T18:33:05.293Z,6.87
2018-09-25T18:38:13.553Z,8.83
2018-09-25T18:43:21.775Z,10.40
2018-09-25T18:48:29.977Z,11.17
2018-09-25T18:53:38.212Z,10.47
2018-09-25T18:58:46.442Z,10.53
2018-09-25T19:03:54.582Z,12.03
2018-09-25T19:09:02.718Z,9.80
2018-09-25T19:14:11.004Z,8.97
2018-09-25T19:19:19.207Z,18.27
2018-09-25T19:24:27.376Z,9.57
2018-09-25T19:29:35.545Z,6.10
2018-09-25T19:34:43.697Z,9.53
2018-09-25T19:39:51.868Z,13.47
2018-09-25T19:45:00.019Z,14.10
2018-09-25T19:50:08.190Z,12.30
2018-09-25T19:55:16.529Z,11.13
2018-09-25T20:00:24.564Z,9.00
2018-09-25T20:05:32.854Z,7.90
2018-09-25T20:10:41.025Z,6.30
2018-09-25T20:15:49.279Z,7.90
2018-09-25T20:20:58.269Z,4.10
2018-09-25T20:26:06.433Z,4.17
2018-09-25T20:31:14.517Z,4.57
2018-09-25T20:36:22.756Z,5.47
2018-09-25T20:41:30.975Z,5.77
2018-09-25T20:46:39.162Z,4.40
2018-09-25T20:51:47.345Z,7.10
2018-09-25T20:56:55.538Z,8.67
2018-09-25T21:02:03.764Z,5.67
2018-09-25T21:07:11.739Z,6.33
2018-09-25T21:12:19.938Z,9.60
2018-09-25T21:17:28.191Z,5.60
2018-09-25T21:22:36.474Z,4.10
2018-09-25T21:27:44.713Z,5.87
2018-09-25T21:32:52.764Z,3.47
2018-09-25T21:38:01.023Z,5.77
2018-09-25T21:43:09.665Z,8.10
2018-09-25T21:48:17.908Z,9.97
2018-09-25T21:53:26.207Z,7.10
2018-09-25T21:58:34.367Z,8.37
2018-09-25T22:03:42.559Z,3.53
2018-09-25T22:08:50.676Z,3.43
2018-09-25T22:13:58.840Z,9.50
2018-09-25T22:19:06.978Z,7.23
2018-09-25T22:24:15.163Z,2.87
2018-09-25T22:29:23.267Z,5.43
2018-09-25T22:34:31.526Z,8.17
2018-09-25T22:39:39.670Z,5.63
2018-09-25T22:44:47.902Z,3.60
2018-09-25T22:49:56.088Z,6.40
2018-09-25T22:55:04.295Z,5.10
2018-09-25T23:00:12.440Z,3.70
2018-09-25T23:05:20.544Z,8.70
2018-09-25T23:10:28.732Z,6.30
2018-09-25T23:15:37.017Z,4.93
2018-09-25T23:20:45.373Z,6.70
2018-09-25T23:25:53.595Z,2.10
2018-09-25T23:31:01.736Z,3.33
2018-09-25T23:36:10.040Z,3.27
2018-09-25T23:41:18.199Z,5.67
2018-09-25T23:46:26.391Z,6.17
2018-09-25T23:51:38.043Z,2.87
2018-09-25T23:56:46.200Z,2.57
